Terminal Aerodrome Forecast
Issued by NWS

Home | Current Version | Previous Version | Text Only | Print | Product List | Glossary On
Versions: 1 2 3 4 5 6 7 8 9 10 11 12 13 14 15 16 17 18 19 20 21 22 23 24
000
FTUS46 KLOX 300600 AAA
TAFPMD
TAF AMD
KPMD 300601Z 3006/3106 VRB05KT P6SM VCSH BKN060 OVC080
     FM301800 35008KT P6SM VCSH SCT050 BKN080
     FM310300 VRB05KT P6SM VCSH SCT060 BKN100=

USA.gov is the U.S. government's official web portal to all federal, state and local government web resources and services.